sensor_id;sensor_type;location;lat;lon;timestamp;temperature;humidity
55016;DHT22;40919;43.236;21.590;2023-02-15T00:00:07;153.60;2252.80
55016;DHT22;40919;43.236;21.590;2023-02-15T00:02:36;128.20;2252.80
55016;DHT22;40919;43.236;21.590;2023-02-15T00:05:02;128.10;2252.80
55016;DHT22;40919;43.236;21.590;2023-02-15T00:07:28;103.30;2227.20
55016;DHT22;40919;43.236;21.590;2023-02-15T00:09:54;103.30;2227.20
55016;DHT22;40919;43.236;21.590;2023-02-15T00:12:21;103.30;2227.20
55016;DHT22;40919;43.236;21.590;2023-02-15T00:14:48;128.00;2252.80
55016;DHT22;40919;43.236;21.590;2023-02-15T00:17:14;128.00;2252.80
55016;DHT22;40919;43.236;21.590;2023-02-15T00:19:39;128.00;2252.80
55016;DHT22;40919;43.236;21.590;2023-02-15T00:22:06;128.00;2252.80
55016;DHT22;40919;43.236;21.590;2023-02-15T00:24:32;128.00;2252.80
55016;DHT22;40919;43.236;21.590;2023-02-15T00:26:58;128.50;2252.80
55016;DHT22;40919;43.236;21.590;2023-02-15T00:29:24;103.30;2227.20
55016;DHT22;40919;43.236;21.590;2023-02-15T00:31:51;103.00;2227.20
55016;DHT22;40919;43.236;21.590;2023-02-15T00:34:25;103.10;2227.20
55016;DHT22;40919;43.236;21.590;2023-02-15T00:36:51;103.10;2227.20
55016;DHT22;40919;43.236;21.590;2023-02-15T00:39:18;103.10;2227.20
55016;DHT22;40919;43.236;21.590;2023-02-15T00:41:45;102.90;2227.20
55016;DHT22;40919;43.236;21.590;2023-02-15T00:44:11;103.00;2227.20
55016;DHT22;40919;43.236;21.590;2023-02-15T00:46:40;102.50;2227.20
55016;DHT22;40919;43.236;21.590;2023-02-15T00:49:08;102.40;2227.20
55016;DHT22;40919;43.236;21.590;2023-02-15T00:51:36;103.00;2227.20
55016;DHT22;40919;43.236;21.590;2023-02-15T00:54:05;103.10;2227.20
55016;DHT22;40919;43.236;21.590;2023-02-15T00:56:31;102.60;2227.20
55016;DHT22;40919;43.236;21.590;2023-02-15T00:58:56;103.20;2227.20
55016;DHT22;40919;43.236;21.590;2023-02-15T01:01:23;103.30;2227.20
55016;DHT22;40919;43.236;21.590;2023-02-15T01:03:49;128.00;2252.80
55016;DHT22;40919;43.236;21.590;2023-02-15T01:06:17;103.20;2227.20
55016;DHT22;40919;43.236;21.590;2023-02-15T01:08:44;128.40;2252.80
55016;DHT22;40919;43.236;21.590;2023-02-15T01:11:16;103.20;2227.20
55016;DHT22;40919;43.236;21.590;2023-02-15T01:13:49;103.20;2227.20
55016;DHT22;40919;43.236;21.590;2023-02-15T01:16:16;103.20;2227.20
55016;DHT22;40919;43.236;21.590;2023-02-15T01:18:42;102.70;2227.20
55016;DHT22;40919;43.236;21.590;2023-02-15T01:21:13;103.20;2227.20
55016;DHT22;40919;43.236;21.590;2023-02-15T01:23:40;103.10;2227.20
55016;DHT22;40919;43.236;21.590;2023-02-15T01:26:06;103.20;2227.20
55016;DHT22;40919;43.236;21.590;2023-02-15T01:28:32;103.10;2227.20
55016;DHT22;40919;43.236;21.590;2023-02-15T01:30:58;103.10;2227.20
55016;DHT22;40919;43.236;21.590;2023-02-15T01:33:25;103.20;2227.20
55016;DHT22;40919;43.236;21.590;2023-02-15T01:35:58;103.20;2227.20
55016;DHT22;40919;43.236;21.590;2023-02-15T01:38:24;103.00;2227.20
55016;DHT22;40919;43.236;21.590;2023-02-15T01:40:54;103.30;2227.20
55016;DHT22;40919;43.236;21.590;2023-02-15T01:43:45;103.30;2227.20
55016;DHT22;40919;43.236;21.590;2023-02-15T01:46:13;103.30;2227.20
55016;DHT22;40919;43.236;21.590;2023-02-15T01:48:47;103.30;2227.20
55016;DHT22;40919;43.236;21.590;2023-02-15T01:51:17;103.30;2227.20
55016;DHT22;40919;43.236;21.590;2023-02-15T01:53:59;103.30;2227.20
55016;DHT22;40919;43.236;21.590;2023-02-15T01:56:31;103.20;2227.20
55016;DHT22;40919;43.236;21.590;2023-02-15T01:59:11;103.30;2227.20
55016;DHT22;40919;43.236;21.590;2023-02-15T02:01:40;103.30;2227.20
55016;DHT22;40919;43.236;21.590;2023-02-15T02:04:17;103.30;2227.20
55016;DHT22;40919;43.236;21.590;2023-02-15T02:06:46;128.10;2252.80
55016;DHT22;40919;43.236;21.590;2023-02-15T02:09:14;128.10;2252.80
55016;DHT22;40919;43.236;21.590;2023-02-15T02:11:40;103.10;2227.20
55016;DHT22;40919;43.236;21.590;2023-02-15T02:14:07;102.60;2227.20
55016;DHT22;40919;43.236;21.590;2023-02-15T02:16:55;128.40;2252.80
55016;DHT22;40919;43.236;21.590;2023-02-15T02:19:52;128.20;2252.80
55016;DHT22;40919;43.236;21.590;2023-02-15T02:22:39;128.30;2252.80
55016;DHT22;40919;43.236;21.590;2023-02-15T02:39:31;128.30;2252.80
55016;DHT22;40919;43.236;21.590;2023-02-15T02:42:29;128.30;2252.80
55016;DHT22;40919;43.236;21.590;2023-02-15T02:45:05;128.40;2252.80
55016;DHT22;40919;43.236;21.590;2023-02-15T02:50:21;128.40;2252.80
55016;DHT22;40919;43.236;21.590;2023-02-15T02:52:52;128.40;2252.80
55016;DHT22;40919;43.236;21.590;2023-02-15T02:58:45;128.40;2252.80
55016;DHT22;40919;43.236;21.590;2023-02-15T03:01:27;128.40;2252.80
55016;DHT22;40919;43.236;21.590;2023-02-15T03:04:01;128.40;2252.80
55016;DHT22;40919;43.236;21.590;2023-02-15T03:09:46;128.40;2252.80
55016;DHT22;40919;43.236;21.590;2023-02-15T03:12:21;128.50;2252.80
55016;DHT22;40919;43.236;21.590;2023-02-15T03:14:52;128.50;2252.80
55016;DHT22;40919;43.236;21.590;2023-02-15T03:17:25;128.50;2252.80
55016;DHT22;40919;43.236;21.590;2023-02-15T03:19:55;128.50;2252.80
55016;DHT22;40919;43.236;21.590;2023-02-15T03:22:50;128.50;2252.80
55016;DHT22;40919;43.236;21.590;2023-02-15T03:25:42;128.50;2252.80
55016;DHT22;40919;43.236;21.590;2023-02-15T03:28:23;128.50;2252.80
55016;DHT22;40919;43.236;21.590;2023-02-15T03:30:54;128.50;2252.80
55016;DHT22;40919;43.236;21.590;2023-02-15T03:33:23;128.50;2252.80
55016;DHT22;40919;43.236;21.590;2023-02-15T03:35:57;128.50;2252.80
55016;DHT22;40919;43.236;21.590;2023-02-15T03:38:34;128.50;2252.80
55016;DHT22;40919;43.236;21.590;2023-02-15T03:41:03;128.50;2252.80
55016;DHT22;40919;43.236;21.590;2023-02-15T03:43:58;128.40;2252.80
55016;DHT22;40919;43.236;21.590;2023-02-15T03:46:37;128.50;2252.80
55016;DHT22;40919;43.236;21.590;2023-02-15T03:51:58;128.50;2252.80
55016;DHT22;40919;43.236;21.590;2023-02-15T03:54:28;128.40;2252.80
55016;DHT22;40919;43.236;21.590;2023-02-15T03:57:19;128.40;2252.80
55016;DHT22;40919;43.236;21.590;2023-02-15T04:00:09;128.40;2252.80
55016;DHT22;40919;43.236;21.590;2023-02-15T04:05:49;128.40;2252.80
55016;DHT22;40919;43.236;21.590;2023-02-15T04:08:15;128.40;2252.80
55016;DHT22;40919;43.236;21.590;2023-02-15T04:10:42;128.40;2252.80
55016;DHT22;40919;43.236;21.590;2023-02-15T04:13:24;128.40;2252.80
55016;DHT22;40919;43.236;21.590;2023-02-15T04:15:56;128.50;2252.80
55016;DHT22;40919;43.236;21.590;2023-02-15T04:18:37;128.50;2252.80
55016;DHT22;40919;43.236;21.590;2023-02-15T04:21:23;128.50;2252.80
55016;DHT22;40919;43.236;21.590;2023-02-15T04:24:08;128.50;2252.80
55016;DHT22;40919;43.236;21.590;2023-02-15T04:26:53;128.40;2252.80
55016;DHT22;40919;43.236;21.590;2023-02-15T04:29:24;128.40;2252.80
55016;DHT22;40919;43.236;21.590;2023-02-15T04:31:50;128.50;2252.80
55016;DHT22;40919;43.236;21.590;2023-02-15T04:34:17;128.50;2252.80
55016;DHT22;40919;43.236;21.590;2023-02-15T04:36:43;128.50;2252.80
55016;DHT22;40919;43.236;21.590;2023-02-15T04:39:11;128.60;2252.80
55016;DHT22;40919;43.236;21.590;2023-02-15T04:41:37;128.50;2252.80
55016;DHT22;40919;43.236;21.590;2023-02-15T04:44:04;128.50;2252.80
55016;DHT22;40919;43.236;21.590;2023-02-15T04:46:30;128.50;2252.80
55016;DHT22;40919;43.236;21.590;2023-02-15T04:48:56;128.50;2252.80
55016;DHT22;40919;43.236;21.590;2023-02-15T04:51:22;128.50;2252.80
55016;DHT22;40919;43.236;21.590;2023-02-15T04:53:48;128.00;2252.80
55016;DHT22;40919;43.236;21.590;2023-02-15T04:56:14;128.60;2252.80
55016;DHT22;40919;43.236;21.590;2023-02-15T04:58:40;128.60;2252.80
55016;DHT22;40919;43.236;21.590;2023-02-15T05:01:10;128.50;2252.80
55016;DHT22;40919;43.236;21.590;2023-02-15T05:03:36;128.50;2252.80
55016;DHT22;40919;43.236;21.590;2023-02-15T05:06:03;128.50;2252.80
55016;DHT22;40919;43.236;21.590;2023-02-15T05:08:30;103.20;2227.20
55016;DHT22;40919;43.236;21.590;2023-02-15T05:10:56;103.10;2227.20
55016;DHT22;40919;43.236;21.590;2023-02-15T05:13:23;128.60;2252.80
55016;DHT22;40919;43.236;21.590;2023-02-15T05:15:53;103.10;2227.20
55016;DHT22;40919;43.236;21.590;2023-02-15T05:18:20;128.50;2252.80
55016;DHT22;40919;43.236;21.590;2023-02-15T05:20:46;128.60;2252.80
55016;DHT22;40919;43.236;21.590;2023-02-15T05:23:12;153.70;2252.80
55016;DHT22;40919;43.236;21.590;2023-02-15T05:25:38;128.60;2252.80
55016;DHT22;40919;43.236;21.590;2023-02-15T05:28:26;128.60;2252.80
55016;DHT22;40919;43.236;21.590;2023-02-15T05:31:04;128.60;2252.80
55016;DHT22;40919;43.236;21.590;2023-02-15T05:33:31;128.50;2252.80
55016;DHT22;40919;43.236;21.590;2023-02-15T05:35:57;128.70;2252.80
55016;DHT22;40919;43.236;21.590;2023-02-15T05:38:23;103.00;2227.20
55016;DHT22;40919;43.236;21.590;2023-02-15T05:40:50;128.50;2252.80
55016;DHT22;40919;43.236;21.590;2023-02-15T05:43:17;128.50;2252.80
55016;DHT22;40919;43.236;21.590;2023-02-15T05:45:49;128.60;2252.80
55016;DHT22;40919;43.236;21.590;2023-02-15T05:48:17;128.50;2252.80
55016;DHT22;40919;43.236;21.590;2023-02-15T05:50:43;128.60;2252.80
55016;DHT22;40919;43.236;21.590;2023-02-15T05:53:09;128.50;2252.80
55016;DHT22;40919;43.236;21.590;2023-02-15T05:55:39;128.60;2252.80
55016;DHT22;40919;43.236;21.590;2023-02-15T05:58:06;128.50;2252.80
55016;DHT22;40919;43.236;21.590;2023-02-15T06:00:33;128.60;2252.80
55016;DHT22;40919;43.236;21.590;2023-02-15T06:02:59;128.50;2252.80
55016;DHT22;40919;43.236;21.590;2023-02-15T06:05:25;128.50;2252.80
55016;DHT22;40919;43.236;21.590;2023-02-15T06:07:51;128.60;2252.80
55016;DHT22;40919;43.236;21.590;2023-02-15T06:10:18;128.60;2252.80
55016;DHT22;40919;43.236;21.590;2023-02-15T06:12:44;128.40;2252.80
55016;DHT22;40919;43.236;21.590;2023-02-15T06:15:10;128.70;2252.80
55016;DHT22;40919;43.236;21.590;2023-02-15T06:17:37;128.60;2252.80
55016;DHT22;40919;43.236;21.590;2023-02-15T06:20:04;128.60;2252.80
55016;DHT22;40919;43.236;21.590;2023-02-15T06:22:30;128.50;2252.80
55016;DHT22;40919;43.236;21.590;2023-02-15T06:24:57;128.70;2252.80
55016;DHT22;40919;43.236;21.590;2023-02-15T06:27:23;153.60;2252.80
55016;DHT22;40919;43.236;21.590;2023-02-15T06:29:49;153.60;2252.80
55016;DHT22;40919;43.236;21.590;2023-02-15T06:32:15;128.60;2252.80
55016;DHT22;40919;43.236;21.590;2023-02-15T06:34:42;128.70;2252.80
55016;DHT22;40919;43.236;21.590;2023-02-15T06:37:08;128.50;2252.80
55016;DHT22;40919;43.236;21.590;2023-02-15T06:39:36;128.70;2252.80
55016;DHT22;40919;43.236;21.590;2023-02-15T06:42:02;128.90;2252.80
55016;DHT22;40919;43.236;21.590;2023-02-15T06:44:29;128.80;2252.80
55016;DHT22;40919;43.236;21.590;2023-02-15T06:46:55;128.70;2252.80
55016;DHT22;40919;43.236;21.590;2023-02-15T06:49:21;128.80;2252.80
55016;DHT22;40919;43.236;21.590;2023-02-15T06:51:48;153.60;2252.80
55016;DHT22;40919;43.236;21.590;2023-02-15T06:54:14;128.90;2252.80
55016;DHT22;40919;43.236;21.590;2023-02-15T06:56:42;128.90;2252.80
55016;DHT22;40919;43.236;21.590;2023-02-15T06:59:09;128.90;2252.80
55016;DHT22;40919;43.236;21.590;2023-02-15T07:04:07;153.70;2252.80
55016;DHT22;40919;43.236;21.590;2023-02-15T07:06:35;153.60;2252.80
55016;DHT22;40919;43.236;21.590;2023-02-15T07:09:05;153.70;2252.80
55016;DHT22;40919;43.236;21.590;2023-02-15T07:14:17;153.80;2252.80
55016;DHT22;40919;43.236;21.590;2023-02-15T07:16:43;153.80;2252.80
55016;DHT22;40919;43.236;21.590;2023-02-15T07:19:09;153.80;2252.80
55016;DHT22;40919;43.236;21.590;2023-02-15T07:21:36;154.00;2252.80
55016;DHT22;40919;43.236;21.590;2023-02-15T07:24:02;154.10;2252.80
55016;DHT22;40919;43.236;21.590;2023-02-15T07:26:28;154.00;2252.80
55016;DHT22;40919;43.236;21.590;2023-02-15T07:28:56;154.00;2252.80
55016;DHT22;40919;43.236;21.590;2023-02-15T07:31:24;154.10;2252.80
55016;DHT22;40919;43.236;21.590;2023-02-15T07:33:51;154.10;2252.80
55016;DHT22;40919;43.236;21.590;2023-02-15T07:36:17;179.30;2252.80
55016;DHT22;40919;43.236;21.590;2023-02-15T07:38:44;128.90;2252.80
55016;DHT22;40919;43.236;21.590;2023-02-15T07:41:12;154.20;2252.80
55016;DHT22;40919;43.236;21.590;2023-02-15T07:43:42;154.20;2252.80
55016;DHT22;40919;43.236;21.590;2023-02-15T07:46:12;154.20;2252.80
55016;DHT22;40919;43.236;21.590;2023-02-15T07:48:39;154.30;2252.80
55016;DHT22;40919;43.236;21.590;2023-02-15T07:51:07;179.40;2252.80
55016;DHT22;40919;43.236;21.590;2023-02-15T07:53:33;154.40;2252.80
55016;DHT22;40919;43.236;21.590;2023-02-15T07:56:00;179.80;2252.80
55016;DHT22;40919;43.236;21.590;2023-02-15T07:58:28;154.40;2252.80
55016;DHT22;40919;43.236;21.590;2023-02-15T08:01:13;154.40;2252.80
55016;DHT22;40919;43.236;21.590;2023-02-15T08:03:40;154.50;2252.80
55016;DHT22;40919;43.236;21.590;2023-02-15T08:06:07;179.20;2252.80
55016;DHT22;40919;43.236;21.590;2023-02-15T08:08:35;179.20;2252.80
55016;DHT22;40919;43.236;21.590;2023-02-15T08:13:50;179.30;2252.80
55016;DHT22;40919;43.236;21.590;2023-02-15T08:19:02;179.30;2252.80
55016;DHT22;40919;43.236;21.590;2023-02-15T08:21:32;179.30;2252.80
55016;DHT22;40919;43.236;21.590;2023-02-15T08:24:01;179.40;2252.80
55016;DHT22;40919;43.236;21.590;2023-02-15T08:26:28;179.40;2252.80
55016;DHT22;40919;43.236;21.590;2023-02-15T08:28:54;179.40;2252.80
55016;DHT22;40919;43.236;21.590;2023-02-15T08:31:21;179.50;2252.80
55016;DHT22;40919;43.236;21.590;2023-02-15T08:33:49;154.20;2252.80
55016;DHT22;40919;43.236;21.590;2023-02-15T08:36:18;179.60;2252.80
55016;DHT22;40919;43.236;21.590;2023-02-15T08:38:44;179.70;2252.80
55016;DHT22;40919;43.236;21.590;2023-02-15T08:41:22;179.80;2252.80
55016;DHT22;40919;43.236;21.590;2023-02-15T08:43:51;179.80;2252.80
55016;DHT22;40919;43.236;21.590;2023-02-15T08:46:17;179.80;2252.80
55016;DHT22;40919;43.236;21.590;2023-02-15T08:48:44;180.10;2252.80
55016;DHT22;40919;43.236;21.590;2023-02-15T08:51:15;179.90;2252.80
55016;DHT22;40919;43.236;21.590;2023-02-15T08:53:44;180.00;2252.80
55016;DHT22;40919;43.236;21.590;2023-02-15T08:56:11;180.00;2252.80
55016;DHT22;40919;43.236;21.590;2023-02-15T08:58:37;180.00;2252.80
55016;DHT22;40919;43.236;21.590;2023-02-15T09:01:16;179.70;2252.80
55016;DHT22;40919;43.236;21.590;2023-02-15T09:03:47;180.00;2252.80
55016;DHT22;40919;43.236;21.590;2023-02-15T09:06:16;180.00;2252.80
55016;DHT22;40919;43.236;21.590;2023-02-15T09:08:43;179.50;2252.80
55016;DHT22;40919;43.236;21.590;2023-02-15T09:11:21;180.10;2252.80
55016;DHT22;40919;43.236;21.590;2023-02-15T09:13:55;180.10;2252.80
55016;DHT22;40919;43.236;21.590;2023-02-15T09:16:23;204.80;2252.80
55016;DHT22;40919;43.236;21.590;2023-02-15T09:18:50;204.80;2252.80
55016;DHT22;40919;43.236;21.590;2023-02-15T09:21:20;204.90;2252.80
55016;DHT22;40919;43.236;21.590;2023-02-15T09:23:50;204.90;2252.80
55016;DHT22;40919;43.236;21.590;2023-02-15T09:26:18;205.10;2252.80
55016;DHT22;40919;43.236;21.590;2023-02-15T09:28:44;205.10;2252.80
55016;DHT22;40919;43.236;21.590;2023-02-15T09:31:16;205.40;2252.80
55016;DHT22;40919;43.236;21.590;2023-02-15T09:33:44;205.20;2252.80
55016;DHT22;40919;43.236;21.590;2023-02-15T09:36:19;205.20;2252.80
55016;DHT22;40919;43.236;21.590;2023-02-15T09:38:46;205.20;2252.80
55016;DHT22;40919;43.236;21.590;2023-02-15T09:49:21;205.20;2252.80
55016;DHT22;40919;43.236;21.590;2023-02-15T09:57:53;205.40;2252.80
55016;DHT22;40919;43.236;21.590;2023-02-15T10:03:11;205.50;2252.80
55016;DHT22;40919;43.236;21.590;2023-02-15T10:14:12;205.70;2252.80
55016;DHT22;40919;43.236;21.590;2023-02-15T10:17:09;205.70;2252.80
55016;DHT22;40919;43.236;21.590;2023-02-15T10:19:53;205.70;2252.80
55016;DHT22;40919;43.236;21.590;2023-02-15T10:25:46;205.70;2252.80
55016;DHT22;40919;43.236;21.590;2023-02-15T10:28:23;230.40;2252.80
55016;DHT22;40919;43.236;21.590;2023-02-15T10:30:53;205.70;2252.80
55016;DHT22;40919;43.236;21.590;2023-02-15T10:47:20;230.70;2252.80
55016;DHT22;40919;43.236;21.590;2023-02-15T10:50:11;230.90;2252.80
55016;DHT22;40919;43.236;21.590;2023-02-15T10:59:13;231.00;2252.80
55016;DHT22;40919;43.236;21.590;2023-02-15T11:01:59;230.90;2252.80
55016;DHT22;40919;43.236;21.590;2023-02-15T11:07:16;231.30;2252.80
55016;DHT22;40919;43.236;21.590;2023-02-15T11:09:50;231.20;2252.80
55016;DHT22;40919;43.236;21.590;2023-02-15T11:12:24;231.10;2252.80
55016;DHT22;40919;43.236;21.590;2023-02-15T11:15:00;231.30;2252.80
55016;DHT22;40919;43.236;21.590;2023-02-15T11:17:37;256.10;2252.80
55016;DHT22;40919;43.236;21.590;2023-02-15T11:20:18;256.10;2252.80
55016;DHT22;40919;43.236;21.590;2023-02-15T11:22:49;256.00;2252.80
55016;DHT22;40919;43.236;21.590;2023-02-15T11:25:29;256.10;2252.80
55016;DHT22;40919;43.236;21.590;2023-02-15T11:27:56;256.10;2252.80
55016;DHT22;40919;43.236;21.590;2023-02-15T11:30:42;256.00;2252.80
55016;DHT22;40919;43.236;21.590;2023-02-15T11:33:37;256.50;2252.80
55016;DHT22;40919;43.236;21.590;2023-02-15T11:36:08;281.70;2278.40
55016;DHT22;40919;43.236;21.590;2023-02-15T11:38:37;256.50;2252.80
55016;DHT22;40919;43.236;21.590;2023-02-15T11:41:15;256.40;2252.80
55016;DHT22;40919;43.236;21.590;2023-02-15T11:46:18;256.40;2252.80
55016;DHT22;40919;43.236;21.590;2023-02-15T11:48:45;256.70;2227.20
55016;DHT22;40919;43.236;21.590;2023-02-15T11:51:16;256.90;2227.20
55016;DHT22;40919;43.236;21.590;2023-02-15T11:53:43;256.50;2227.20
55016;DHT22;40919;43.236;21.590;2023-02-15T11:56:18;281.60;2252.80
55016;DHT22;40919;43.236;21.590;2023-02-15T11:58:45;282.20;2227.20
55016;DHT22;40919;43.236;21.590;2023-02-15T12:03:48;307.40;2150.40
55016;DHT22;40919;43.236;21.590;2023-02-15T12:06:25;307.40;2278.40
55016;DHT22;40919;43.236;21.590;2023-02-15T12:14:10;307.90;2099.20
55016;DHT22;40919;43.236;21.590;2023-02-15T12:16:48;332.80;2099.20
55016;DHT22;40919;43.236;21.590;2023-02-15T12:19:37;333.10;2099.20
55016;DHT22;40919;43.236;21.590;2023-02-15T12:22:05;333.20;2099.20
55016;DHT22;40919;43.236;21.590;2023-02-15T12:24:45;333.10;2073.60
55016;DHT22;40919;43.236;21.590;2023-02-15T12:27:17;333.40;2073.60
55016;DHT22;40919;43.236;21.590;2023-02-15T12:29:57;333.40;2048.00
55016;DHT22;40919;43.236;21.590;2023-02-15T12:32:26;333.70;2022.40
55016;DHT22;40919;43.236;21.590;2023-02-15T12:35:00;333.60;2022.40
55016;DHT22;40919;43.236;21.590;2023-02-15T12:37:29;358.40;1971.20
55016;DHT22;40919;43.236;21.590;2023-02-15T12:40:22;358.40;2022.40
55016;DHT22;40919;43.236;21.590;2023-02-15T12:45:35;358.70;1971.20
55016;DHT22;40919;43.236;21.590;2023-02-15T12:48:17;358.90;2099.20
55016;DHT22;40919;43.236;21.590;2023-02-15T12:50:45;359.00;1945.60
55016;DHT22;40919;43.236;21.590;2023-02-15T13:04:04;384.00;1868.80
55016;DHT22;40919;43.236;21.590;2023-02-15T13:06:33;359.30;1868.80
55016;DHT22;40919;43.236;21.590;2023-02-15T13:11:56;358.80;1894.40
55016;DHT22;40919;43.236;21.590;2023-02-15T13:14:30;359.00;1920.00
55016;DHT22;40919;43.236;21.590;2023-02-15T13:17:00;359.10;1920.00
55016;DHT22;40919;43.236;21.590;2023-02-15T13:55:54;384.60;1843.20
55016;DHT22;40919;43.236;21.590;2023-02-15T14:01:14;384.70;1868.80
55016;DHT22;40919;43.236;21.590;2023-02-15T14:03:46;384.80;1817.60
55016;DHT22;40919;43.236;21.590;2023-02-15T14:06:28;384.70;1817.60
55016;DHT22;40919;43.236;21.590;2023-02-15T14:23:25;359.20;1868.80
55016;DHT22;40919;43.236;21.590;2023-02-15T14:27:17;358.40;1894.40
55016;DHT22;40919;43.236;21.590;2023-02-15T14:32:35;333.10;1971.20
55016;DHT22;40919;43.236;21.590;2023-02-15T14:35:03;308.10;1945.60
55016;DHT22;40919;43.236;21.590;2023-02-15T14:48:46;307.30;2073.60
55016;DHT22;40919;43.236;21.590;2023-02-15T14:56:46;282.20;2150.40
55016;DHT22;40919;43.236;21.590;2023-02-15T15:02:17;281.90;2176.00
55016;DHT22;40919;43.236;21.590;2023-02-15T15:04:58;281.80;2201.60
55016;DHT22;40919;43.236;21.590;2023-02-15T15:07:46;281.70;2201.60
55016;DHT22;40919;43.236;21.590;2023-02-15T15:12:44;256.70;2227.20
55016;DHT22;40919;43.236;21.590;2023-02-15T15:15:13;256.70;2252.80
55016;DHT22;40919;43.236;21.590;2023-02-15T15:22:43;256.40;2252.80
55016;DHT22;40919;43.236;21.590;2023-02-15T15:28:03;256.30;2252.80
55016;DHT22;40919;43.236;21.590;2023-02-15T15:48:38;231.10;2252.80
55016;DHT22;40919;43.236;21.590;2023-02-15T15:51:52;231.00;2252.80
55016;DHT22;40919;43.236;21.590;2023-02-15T15:54:22;230.90;2252.80
55016;DHT22;40919;43.236;21.590;2023-02-15T15:56:51;230.90;2252.80
55016;DHT22;40919;43.236;21.590;2023-02-15T15:59:28;230.90;2252.80
55016;DHT22;40919;43.236;21.590;2023-02-15T16:01:55;230.80;2252.80
55016;DHT22;40919;43.236;21.590;2023-02-15T16:04:30;230.80;2252.80
55016;DHT22;40919;43.236;21.590;2023-02-15T16:07:05;230.70;2252.80
55016;DHT22;40919;43.236;21.590;2023-02-15T16:09:38;230.70;2252.80
55016;DHT22;40919;43.236;21.590;2023-02-15T16:12:04;230.60;2252.80
55016;DHT22;40919;43.236;21.590;2023-02-15T16:14:40;230.60;2252.80
55016;DHT22;40919;43.236;21.590;2023-02-15T16:17:16;231.00;2252.80
55016;DHT22;40919;43.236;21.590;2023-02-15T16:19:43;230.60;2252.80
55016;DHT22;40919;43.236;21.590;2023-02-15T16:22:35;230.50;2252.80
55016;DHT22;40919;43.236;21.590;2023-02-15T16:25:26;230.40;2252.80
55016;DHT22;40919;43.236;21.590;2023-02-15T16:27:55;230.40;2252.80
55016;DHT22;40919;43.236;21.590;2023-02-15T16:30:33;205.70;2252.80
55016;DHT22;40919;43.236;21.590;2023-02-15T16:33:14;205.60;2252.80
55016;DHT22;40919;43.236;21.590;2023-02-15T16:36:01;205.50;2252.80
55016;DHT22;40919;43.236;21.590;2023-02-15T16:41:25;205.30;2252.80
55016;DHT22;40919;43.236;21.590;2023-02-15T16:43:54;205.20;2252.80
55016;DHT22;40919;43.236;21.590;2023-02-15T16:46:25;205.20;2252.80
55016;DHT22;40919;43.236;21.590;2023-02-15T16:48:54;205.10;2252.80
55016;DHT22;40919;43.236;21.590;2023-02-15T16:51:32;205.10;2252.80
55016;DHT22;40919;43.236;21.590;2023-02-15T16:54:05;205.20;2252.80
55016;DHT22;40919;43.236;21.590;2023-02-15T16:56:32;205.00;2252.80
55016;DHT22;40919;43.236;21.590;2023-02-15T16:58:59;205.10;2252.80
55016;DHT22;40919;43.236;21.590;2023-02-15T17:44:04;179.30;2252.80
55016;DHT22;40919;43.236;21.590;2023-02-15T17:46:35;179.20;2252.80
55016;DHT22;40919;43.236;21.590;2023-02-15T17:49:01;154.50;2252.80
55016;DHT22;40919;43.236;21.590;2023-02-15T17:51:28;180.00;2252.80
55016;DHT22;40919;43.236;21.590;2023-02-15T17:53:53;154.40;2252.80
55016;DHT22;40919;43.236;21.590;2023-02-15T17:56:38;154.30;2252.80
55016;DHT22;40919;43.236;21.590;2023-02-15T17:59:04;128.80;2252.80
55016;DHT22;40919;43.236;21.590;2023-02-15T18:01:38;154.20;2252.80
55016;DHT22;40919;43.236;21.590;2023-02-15T18:04:25;154.10;2252.80
55016;DHT22;40919;43.236;21.590;2023-02-15T18:07:12;154.00;2252.80
55016;DHT22;40919;43.236;21.590;2023-02-15T18:09:56;153.80;2252.80
55016;DHT22;40919;43.236;21.590;2023-02-15T18:12:40;153.90;2252.80
55016;DHT22;40919;43.236;21.590;2023-02-15T18:15:07;153.90;2252.80
55016;DHT22;40919;43.236;21.590;2023-02-15T18:17:35;153.90;2252.80
55016;DHT22;40919;43.236;21.590;2023-02-15T18:20:05;153.90;2252.80
55016;DHT22;40919;43.236;21.590;2023-02-15T18:22:32;153.90;2252.80
55016;DHT22;40919;43.236;21.590;2023-02-15T18:25:13;153.90;2252.80
55016;DHT22;40919;43.236;21.590;2023-02-15T18:28:01;153.90;2252.80
55016;DHT22;40919;43.236;21.590;2023-02-15T18:30:49;153.80;2252.80
55016;DHT22;40919;43.236;21.590;2023-02-15T18:33:39;153.70;2252.80
55016;DHT22;40919;43.236;21.590;2023-02-15T18:36:57;153.70;2252.80
55016;DHT22;40919;43.236;21.590;2023-02-15T18:39:50;153.60;2252.80
55016;DHT22;40919;43.236;21.590;2023-02-15T18:42:38;128.90;2252.80
55016;DHT22;40919;43.236;21.590;2023-02-15T18:45:20;128.80;2252.80
55016;DHT22;40919;43.236;21.590;2023-02-15T18:47:51;128.70;2252.80
55016;DHT22;40919;43.236;21.590;2023-02-15T18:50:19;128.70;2252.80
55016;DHT22;40919;43.236;21.590;2023-02-15T18:52:49;128.70;2252.80
55016;DHT22;40919;43.236;21.590;2023-02-15T18:55:38;128.50;2252.80
55016;DHT22;40919;43.236;21.590;2023-02-15T18:58:22;128.40;2252.80
55016;DHT22;40919;43.236;21.590;2023-02-15T19:00:49;128.40;2252.80
55016;DHT22;40919;43.236;21.590;2023-02-15T19:03:16;128.40;2252.80
55016;DHT22;40919;43.236;21.590;2023-02-15T19:05:44;128.30;2252.80
55016;DHT22;40919;43.236;21.590;2023-02-15T19:08:18;128.10;2252.80
55016;DHT22;40919;43.236;21.590;2023-02-15T19:10:46;128.00;2252.80
55016;DHT22;40919;43.236;21.590;2023-02-15T19:13:14;153.70;2252.80
55016;DHT22;40919;43.236;21.590;2023-02-15T19:15:42;103.30;2227.20
55016;DHT22;40919;43.236;21.590;2023-02-15T19:18:09;128.00;2252.80
55016;DHT22;40919;43.236;21.590;2023-02-15T19:20:43;128.00;2252.80
55016;DHT22;40919;43.236;21.590;2023-02-15T19:23:20;128.00;2252.80
55016;DHT22;40919;43.236;21.590;2023-02-15T19:25:47;128.00;2252.80
55016;DHT22;40919;43.236;21.590;2023-02-15T19:28:26;128.00;2252.80
55016;DHT22;40919;43.236;21.590;2023-02-15T19:30:59;128.10;2252.80
55016;DHT22;40919;43.236;21.590;2023-02-15T19:33:25;128.20;2252.80